sensor_id;sensor_type;location;lat;lon;timestamp;pressure;altitude;pressure_sealevel;temperature;humidity
50133;BME280;46340;53.148;8.204;2022-08-19T00:00:01;101321.06;;;14.63;100.00
50133;BME280;46340;53.148;8.204;2022-08-19T00:02:32;101312.53;;;14.56;100.00
50133;BME280;46340;53.148;8.204;2022-08-19T00:04:57;101318.44;;;14.54;100.00
50133;BME280;46340;53.148;8.204;2022-08-19T00:07:22;101313.22;;;14.53;100.00
50133;BME280;46340;53.148;8.204;2022-08-19T00:09:48;101317.63;;;14.54;100.00
50133;BME280;46340;53.148;8.204;2022-08-19T00:12:13;101317.16;;;14.52;100.00
50133;BME280;46340;53.148;8.204;2022-08-19T00:14:38;101314.03;;;14.53;100.00
50133;BME280;46340;53.148;8.204;2022-08-19T00:17:06;101308.81;;;14.52;100.00
50133;BME280;46340;53.148;8.204;2022-08-19T00:19:32;101310.81;;;14.51;100.00
50133;BME280;46340;53.148;8.204;2022-08-19T00:21:58;101320.69;;;14.48;100.00
50133;BME280;46340;53.148;8.204;2022-08-19T00:24:24;101303.94;;;14.45;100.00
50133;BME280;46340;53.148;8.204;2022-08-19T00:26:50;101305.44;;;14.42;100.00
50133;BME280;46340;53.148;8.204;2022-08-19T00:29:17;101304.19;;;14.40;100.00
50133;BME280;46340;53.148;8.204;2022-08-19T00:31:45;101302.13;;;14.37;100.00
50133;BME280;46340;53.148;8.204;2022-08-19T00:34:11;101295.31;;;14.34;100.00
50133;BME280;46340;53.148;8.204;2022-08-19T00:36:38;101298.91;;;14.35;100.00
50133;BME280;46340;53.148;8.204;2022-08-19T00:39:04;101308.41;;;14.34;100.00
50133;BME280;46340;53.148;8.204;2022-08-19T00:41:30;101306.69;;;14.29;100.00
50133;BME280;46340;53.148;8.204;2022-08-19T00:44:07;101308.66;;;14.28;100.00
50133;BME280;46340;53.148;8.204;2022-08-19T00:46:36;101304.66;;;14.26;100.00
50133;BME280;46340;53.148;8.204;2022-08-19T00:49:06;101307.78;;;14.24;100.00
50133;BME280;46340;53.148;8.204;2022-08-19T00:51:39;101308.56;;;14.25;100.00
50133;BME280;46340;53.148;8.204;2022-08-19T00:54:07;101307.78;;;14.24;100.00
50133;BME280;46340;53.148;8.204;2022-08-19T00:56:33;101317.25;;;14.23;100.00
50133;BME280;46340;53.148;8.204;2022-08-19T00:58:59;101306.41;;;14.18;100.00
50133;BME280;46340;53.148;8.204;2022-08-19T01:01:26;101304.81;;;14.17;100.00
50133;BME280;46340;53.148;8.204;2022-08-19T01:03:52;101302.41;;;14.16;100.00
50133;BME280;46340;53.148;8.204;2022-08-19T01:06:17;101313.06;;;14.14;100.00
50133;BME280;46340;53.148;8.204;2022-08-19T01:08:43;101313.41;;;14.12;100.00
50133;BME280;46340;53.148;8.204;2022-08-19T01:11:08;101307.78;;;14.08;100.00
50133;BME280;46340;53.148;8.204;2022-08-19T01:13:33;101312.50;;;14.08;100.00
50133;BME280;46340;53.148;8.204;2022-08-19T01:16:01;101318.75;;;14.05;100.00
50133;BME280;46340;53.148;8.204;2022-08-19T01:18:35;101313.19;;;14.05;100.00
50133;BME280;46340;53.148;8.204;2022-08-19T01:21:05;101311.94;;;14.02;100.00
50133;BME280;46340;53.148;8.204;2022-08-19T01:23:35;101306.75;;;14.01;100.00
50133;BME280;46340;53.148;8.204;2022-08-19T01:26:14;101302.75;;;13.98;100.00
50133;BME280;46340;53.148;8.204;2022-08-19T01:28:42;101303.44;;;13.95;100.00
50133;BME280;46340;53.148;8.204;2022-08-19T01:31:11;101303.78;;;13.94;100.00
50133;BME280;46340;53.148;8.204;2022-08-19T01:33:39;101299.75;;;13.91;100.00
50133;BME280;46340;53.148;8.204;2022-08-19T01:36:06;101298.06;;;13.86;100.00
50133;BME280;46340;53.148;8.204;2022-08-19T01:38:36;101295.19;;;13.83;100.00
50133;BME280;46340;53.148;8.204;2022-08-19T01:41:04;101292.31;;;13.79;100.00
50133;BME280;46340;53.148;8.204;2022-08-19T01:43:29;101283.88;;;13.76;100.00
50133;BME280;46340;53.148;8.204;2022-08-19T01:45:54;101276.00;;;13.78;100.00
50133;BME280;46340;53.148;8.204;2022-08-19T01:48:20;101279.13;;;13.76;100.00
50133;BME280;46340;53.148;8.204;2022-08-19T01:50:45;101278.22;;;13.72;100.00
50133;BME280;46340;53.148;8.204;2022-08-19T01:53:12;101273.03;;;13.70;100.00
50133;BME280;46340;53.148;8.204;2022-08-19T01:55:38;101280.09;;;13.68;100.00
50133;BME280;46340;53.148;8.204;2022-08-19T01:58:06;101272.81;;;13.63;100.00
50133;BME280;46340;53.148;8.204;2022-08-19T02:00:35;101266.38;;;13.59;100.00
50133;BME280;46340;53.148;8.204;2022-08-19T02:03:02;101260.38;;;13.57;100.00
50133;BME280;46340;53.148;8.204;2022-08-19T02:05:27;101256.00;;;13.56;100.00
50133;BME280;46340;53.148;8.204;2022-08-19T02:07:54;101252.31;;;13.52;100.00
50133;BME280;46340;53.148;8.204;2022-08-19T02:10:20;101247.81;;;13.47;100.00
50133;BME280;46340;53.148;8.204;2022-08-19T02:12:47;101240.09;;;13.41;100.00
50133;BME280;46340;53.148;8.204;2022-08-19T02:15:14;101241.97;;;13.37;100.00
50133;BME280;46340;53.148;8.204;2022-08-19T02:17:40;101237.56;;;13.35;100.00
50133;BME280;46340;53.148;8.204;2022-08-19T02:20:06;101247.19;;;13.38;100.00
50133;BME280;46340;53.148;8.204;2022-08-19T02:22:32;101244.06;;;13.40;100.00
50133;BME280;46340;53.148;8.204;2022-08-19T02:24:58;101244.31;;;13.34;100.00
50133;BME280;46340;53.148;8.204;2022-08-19T02:27:24;101251.66;;;13.30;100.00
50133;BME280;46340;53.148;8.204;2022-08-19T02:29:50;101248.78;;;13.27;100.00
50133;BME280;46340;53.148;8.204;2022-08-19T02:32:16;101253.09;;;13.24;100.00
50133;BME280;46340;53.148;8.204;2022-08-19T02:34:44;101250.66;;;13.23;100.00
50133;BME280;46340;53.148;8.204;2022-08-19T02:37:09;101245.38;;;13.17;100.00
50133;BME280;46340;53.148;8.204;2022-08-19T02:39:55;101245.63;;;13.12;100.00
50133;BME280;46340;53.148;8.204;2022-08-19T02:42:20;101246.41;;;13.13;100.00
50133;BME280;46340;53.148;8.204;2022-08-19T02:44:45;101252.44;;;13.15;100.00
50133;BME280;46340;53.148;8.204;2022-08-19T02:47:11;101250.13;;;13.17;100.00
50133;BME280;46340;53.148;8.204;2022-08-19T02:49:38;101250.13;;;13.17;100.00
50133;BME280;46340;53.148;8.204;2022-08-19T02:52:03;101256.25;;;13.10;100.00
50133;BME280;46340;53.148;8.204;2022-08-19T02:54:28;101269.66;;;13.08;100.00
50133;BME280;46340;53.148;8.204;2022-08-19T02:56:54;101262.38;;;13.04;100.00
50133;BME280;46340;53.148;8.204;2022-08-19T02:59:19;101258.22;;;12.97;100.00
50133;BME280;46340;53.148;8.204;2022-08-19T03:01:44;101255.00;;;12.95;100.00
50133;BME280;46340;53.148;8.204;2022-08-19T03:04:11;101256.53;;;12.93;100.00
50133;BME280;46340;53.148;8.204;2022-08-19T03:06:39;101246.94;;;12.90;100.00
50133;BME280;46340;53.148;8.204;2022-08-19T03:09:06;101244.50;;;12.89;100.00
50133;BME280;46340;53.148;8.204;2022-08-19T03:11:32;101250.88;;;12.89;100.00
50133;BME280;46340;53.148;8.204;2022-08-19T03:13:58;101248.47;;;12.88;100.00
50133;BME280;46340;53.148;8.204;2022-08-19T03:16:25;101255.94;;;12.87;100.00
50133;BME280;46340;53.148;8.204;2022-08-19T03:18:52;101258.25;;;12.85;100.00
50133;BME280;46340;53.148;8.204;2022-08-19T03:21:20;101263.34;;;12.83;100.00
50133;BME280;46340;53.148;8.204;2022-08-19T03:23:48;101259.44;;;12.84;100.00
50133;BME280;46340;53.148;8.204;2022-08-19T03:26:14;101265.31;;;12.83;100.00
50133;BME280;46340;53.148;8.204;2022-08-19T03:28:40;101252.97;;;12.80;100.00
50133;BME280;46340;53.148;8.204;2022-08-19T03:31:07;101257.13;;;12.74;100.00
50133;BME280;46340;53.148;8.204;2022-08-19T03:33:36;101251.94;;;12.72;100.00
50133;BME280;46340;53.148;8.204;2022-08-19T03:36:13;101254.25;;;12.70;100.00
50133;BME280;46340;53.148;8.204;2022-08-19T03:38:42;101254.94;;;12.67;100.00
50133;BME280;46340;53.148;8.204;2022-08-19T03:41:11;101265.47;;;12.62;100.00
50133;BME280;46340;53.148;8.204;2022-08-19T03:43:39;101257.38;;;12.56;100.00
50133;BME280;46340;53.148;8.204;2022-08-19T03:46:07;101257.28;;;12.53;100.00
50133;BME280;46340;53.148;8.204;2022-08-19T03:48:35;101251.38;;;12.54;100.00
50133;BME280;46340;53.148;8.204;2022-08-19T03:51:02;101247.69;;;12.50;100.00
50133;BME280;46340;53.148;8.204;2022-08-19T03:53:29;101249.53;;;12.46;100.00
50133;BME280;46340;53.148;8.204;2022-08-19T03:55:55;101250.56;;;12.41;100.00
50133;BME280;46340;53.148;8.204;2022-08-19T03:58:22;101247.69;;;12.38;100.00
50133;BME280;46340;53.148;8.204;2022-08-19T04:00:47;101253.22;;;12.38;100.00
50133;BME280;46340;53.148;8.204;2022-08-19T04:03:13;101259.44;;;12.35;100.00
50133;BME280;46340;53.148;8.204;2022-08-19T04:05:39;101257.38;;;12.32;100.00
50133;BME280;46340;53.148;8.204;2022-08-19T04:08:04;101258.19;;;12.32;100.00
50133;BME280;46340;53.148;8.204;2022-08-19T04:10:30;101255.09;;;12.34;100.00
50133;BME280;46340;53.148;8.204;2022-08-19T04:12:56;101254.16;;;12.30;100.00
50133;BME280;46340;53.148;8.204;2022-08-19T04:15:21;101256.00;;;12.26;100.00
50133;BME280;46340;53.148;8.204;2022-08-19T04:17:46;101252.44;;;12.25;100.00
50133;BME280;46340;53.148;8.204;2022-08-19T04:20:12;101261.66;;;12.29;100.00
50133;BME280;46340;53.148;8.204;2022-08-19T04:22:37;101259.22;;;12.28;100.00
50133;BME280;46340;53.148;8.204;2022-08-19T04:25:03;101262.00;;;12.28;100.00
50133;BME280;46340;53.148;8.204;2022-08-19T04:27:28;101265.22;;;12.30;100.00
50133;BME280;46340;53.148;8.204;2022-08-19T04:29:54;101261.44;;;12.34;100.00
50133;BME280;46340;53.148;8.204;2022-08-19T04:32:20;101267.06;;;12.38;100.00
50133;BME280;46340;53.148;8.204;2022-08-19T04:34:45;101264.06;;;12.43;100.00
50133;BME280;46340;53.148;8.204;2022-08-19T04:37:11;101272.03;;;12.45;100.00
50133;BME280;46340;53.148;8.204;2022-08-19T04:39:37;101267.66;;;12.44;100.00
50133;BME280;46340;53.148;8.204;2022-08-19T04:42:21;101266.16;;;12.46;100.00
50133;BME280;46340;53.148;8.204;2022-08-19T04:45:06;101274.59;;;12.50;100.00
50133;BME280;46340;53.148;8.204;2022-08-19T04:47:35;101277.59;;;12.57;100.00
50133;BME280;46340;53.148;8.204;2022-08-19T04:50:02;101271.13;;;12.65;100.00
50133;BME280;46340;53.148;8.204;2022-08-19T04:52:27;101270.78;;;12.67;100.00
50133;BME280;46340;53.148;8.204;2022-08-19T04:54:53;101265.69;;;12.69;100.00
50133;BME280;46340;53.148;8.204;2022-08-19T04:57:20;101270.16;;;12.73;100.00
50133;BME280;46340;53.148;8.204;2022-08-19T04:59:46;101282.06;;;12.74;100.00
50133;BME280;46340;53.148;8.204;2022-08-19T05:02:11;101282.63;;;12.79;100.00
50133;BME280;46340;53.148;8.204;2022-08-19T05:04:36;101291.06;;;12.83;100.00
50133;BME280;46340;53.148;8.204;2022-08-19T05:07:04;101288.06;;;12.88;100.00
50133;BME280;46340;53.148;8.204;2022-08-19T05:09:30;101299.81;;;12.97;100.00
50133;BME280;46340;53.148;8.204;2022-08-19T05:11:55;101300.75;;;13.02;100.00
50133;BME280;46340;53.148;8.204;2022-08-19T05:14:20;101299.22;;;13.04;100.00
50133;BME280;46340;53.148;8.204;2022-08-19T05:16:46;101301.75;;;13.09;100.00
50133;BME280;46340;53.148;8.204;2022-08-19T05:19:12;101298.97;;;13.09;100.00
50133;BME280;46340;53.148;8.204;2022-08-19T05:21:56;101300.03;;;13.17;100.00
50133;BME280;46340;53.148;8.204;2022-08-19T05:24:40;101294.22;;;13.34;100.00
50133;BME280;46340;53.148;8.204;2022-08-19T05:27:05;101297.09;;;13.38;100.00
50133;BME280;46340;53.148;8.204;2022-08-19T05:29:31;101292.59;;;13.33;100.00
50133;BME280;46340;53.148;8.204;2022-08-19T05:31:59;101297.66;;;13.44;100.00
50133;BME280;46340;53.148;8.204;2022-08-19T05:34:24;101295.81;;;13.48;100.00
50133;BME280;46340;53.148;8.204;2022-08-19T05:36:51;101285.00;;;13.59;100.00
50133;BME280;46340;53.148;8.204;2022-08-19T05:39:22;101282.53;;;13.69;100.00
50133;BME280;46340;53.148;8.204;2022-08-19T05:41:53;101277.41;;;13.71;100.00
50133;BME280;46340;53.148;8.204;2022-08-19T05:44:22;101282.00;;;13.80;100.00
50133;BME280;46340;53.148;8.204;2022-08-19T05:46:48;101275.03;;;13.86;100.00
50133;BME280;46340;53.148;8.204;2022-08-19T05:49:14;101259.13;;;13.99;100.00
50133;BME280;46340;53.148;8.204;2022-08-19T05:51:40;101267.81;;;14.13;100.00
50133;BME280;46340;53.148;8.204;2022-08-19T05:54:06;101271.22;;;14.38;100.00
50133;BME280;46340;53.148;8.204;2022-08-19T05:56:33;101265.41;;;14.59;100.00
50133;BME280;46340;53.148;8.204;2022-08-19T05:59:01;101264.47;;;14.71;100.00
50133;BME280;46340;53.148;8.204;2022-08-19T06:01:27;101264.91;;;14.73;100.00
50133;BME280;46340;53.148;8.204;2022-08-19T06:03:53;101258.53;;;14.89;100.00
50133;BME280;46340;53.148;8.204;2022-08-19T06:06:18;101262.03;;;15.05;100.00
50133;BME280;46340;53.148;8.204;2022-08-19T06:08:45;101254.88;;;15.23;100.00
50133;BME280;46340;53.148;8.204;2022-08-19T06:11:23;101251.66;;;15.41;100.00
50133;BME280;46340;53.148;8.204;2022-08-19T06:13:51;101254.94;;;15.47;100.00
50133;BME280;46340;53.148;8.204;2022-08-19T06:16:21;101244.72;;;15.51;100.00
50133;BME280;46340;53.148;8.204;2022-08-19T06:18:54;101242.91;;;15.62;100.00
50133;BME280;46340;53.148;8.204;2022-08-19T06:21:22;101253.09;;;15.74;100.00
50133;BME280;46340;53.148;8.204;2022-08-19T06:23:49;101252.28;;;15.93;100.00
50133;BME280;46340;53.148;8.204;2022-08-19T06:26:16;101254.38;;;16.00;100.00
50133;BME280;46340;53.148;8.204;2022-08-19T06:28:43;101250.59;;;15.88;100.00
50133;BME280;46340;53.148;8.204;2022-08-19T06:31:29;101260.63;;;15.93;100.00
50133;BME280;46340;53.148;8.204;2022-08-19T06:33:56;101259.66;;;16.05;100.00
50133;BME280;46340;53.148;8.204;2022-08-19T06:36:28;101265.03;;;16.17;100.00
50133;BME280;46340;53.148;8.204;2022-08-19T06:39:04;101259.19;;;16.26;100.00
50133;BME280;46340;53.148;8.204;2022-08-19T06:41:36;101259.75;;;16.35;100.00
50133;BME280;46340;53.148;8.204;2022-08-19T06:44:03;101259.50;;;16.44;100.00
50133;BME280;46340;53.148;8.204;2022-08-19T06:46:29;101260.78;;;16.50;100.00
50133;BME280;46340;53.148;8.204;2022-08-19T06:48:55;101254.56;;;16.60;100.00
50133;BME280;46340;53.148;8.204;2022-08-19T06:51:21;101261.75;;;16.61;100.00
50133;BME280;46340;53.148;8.204;2022-08-19T06:53:49;101266.94;;;16.63;100.00
50133;BME280;46340;53.148;8.204;2022-08-19T06:56:26;101261.19;;;16.52;100.00
50133;BME280;46340;53.148;8.204;2022-08-19T06:58:58;101265.88;;;16.71;100.00
50133;BME280;46340;53.148;8.204;2022-08-19T07:01:28;101267.78;;;16.90;100.00
50133;BME280;46340;53.148;8.204;2022-08-19T07:03:54;101262.75;;;16.99;100.00
50133;BME280;46340;53.148;8.204;2022-08-19T07:06:19;101265.94;;;17.01;100.00
50133;BME280;46340;53.148;8.204;2022-08-19T07:08:45;101271.75;;;16.89;100.00
50133;BME280;46340;53.148;8.204;2022-08-19T07:11:12;101271.03;;;16.96;100.00
50133;BME280;46340;53.148;8.204;2022-08-19T07:13:40;101278.09;;;17.16;100.00
50133;BME280;46340;53.148;8.204;2022-08-19T07:16:08;101275.47;;;17.27;100.00
50133;BME280;46340;53.148;8.204;2022-08-19T07:18:37;101274.25;;;17.28;100.00
50133;BME280;46340;53.148;8.204;2022-08-19T07:21:06;101277.28;;;17.16;100.00
50133;BME280;46340;53.148;8.204;2022-08-19T07:23:32;101278.66;;;17.29;100.00
50133;BME280;46340;53.148;8.204;2022-08-19T07:25:58;101279.81;;;17.58;100.00
50133;BME280;46340;53.148;8.204;2022-08-19T07:28:28;101280.38;;;17.75;100.00
50133;BME280;46340;53.148;8.204;2022-08-19T07:30:54;101276.81;;;17.78;100.00
50133;BME280;46340;53.148;8.204;2022-08-19T07:33:19;101281.75;;;17.88;100.00
50133;BME280;46340;53.148;8.204;2022-08-19T07:35:45;101281.28;;;17.82;100.00
50133;BME280;46340;53.148;8.204;2022-08-19T07:38:10;101291.03;;;17.99;100.00
50133;BME280;46340;53.148;8.204;2022-08-19T07:40:35;101291.16;;;18.10;100.00
50133;BME280;46340;53.148;8.204;2022-08-19T07:43:01;101300.81;;;18.20;100.00
50133;BME280;46340;53.148;8.204;2022-08-19T07:45:26;101295.41;;;18.38;100.00
50133;BME280;46340;53.148;8.204;2022-08-19T07:47:53;101303.75;;;18.34;100.00
50133;BME280;46340;53.148;8.204;2022-08-19T07:50:19;101299.28;;;18.26;100.00
50133;BME280;46340;53.148;8.204;2022-08-19T07:52:45;101305.53;;;18.12;100.00
50133;BME280;46340;53.148;8.204;2022-08-19T07:55:11;101310.25;;;18.04;100.00
50133;BME280;46340;53.148;8.204;2022-08-19T07:57:37;101312.84;;;18.24;100.00
50133;BME280;46340;53.148;8.204;2022-08-19T08:00:03;101320.03;;;18.25;100.00
50133;BME280;46340;53.148;8.204;2022-08-19T08:02:30;101322.00;;;18.21;100.00
50133;BME280;46340;53.148;8.204;2022-08-19T08:04:55;101319.81;;;18.03;100.00
50133;BME280;46340;53.148;8.204;2022-08-19T08:07:39;101322.75;;;18.18;100.00
50133;BME280;46340;53.148;8.204;2022-08-19T08:10:24;101313.53;;;18.14;100.00
50133;BME280;46340;53.148;8.204;2022-08-19T08:12:49;101318.47;;;18.28;100.00
50133;BME280;46340;53.148;8.204;2022-08-19T08:15:15;101315.09;;;18.56;100.00
50133;BME280;46340;53.148;8.204;2022-08-19T08:17:41;101322.31;;;18.57;100.00
50133;BME280;46340;53.148;8.204;2022-08-19T08:20:07;101321.56;;;18.64;100.00
50133;BME280;46340;53.148;8.204;2022-08-19T08:22:34;101321.63;;;18.71;100.00
50133;BME280;46340;53.148;8.204;2022-08-19T08:25:20;101329.84;;;18.53;100.00
50133;BME280;46340;53.148;8.204;2022-08-19T08:27:47;101339.41;;;18.48;100.00
50133;BME280;46340;53.148;8.204;2022-08-19T08:30:18;101338.91;;;18.39;100.00
50133;BME280;46340;53.148;8.204;2022-08-19T08:32:46;101337.84;;;18.54;100.00
50133;BME280;46340;53.148;8.204;2022-08-19T08:35:14;101347.91;;;18.63;100.00
50133;BME280;46340;53.148;8.204;2022-08-19T08:37:41;101349.00;;;18.51;100.00
50133;BME280;46340;53.148;8.204;2022-08-19T08:45:47;101340.06;;;19.38;100.00
50133;BME280;46340;53.148;8.204;2022-08-19T08:48:24;101336.56;;;19.66;100.00
50133;BME280;46340;53.148;8.204;2022-08-19T08:51:14;101344.25;;;19.84;100.00
50133;BME280;46340;53.148;8.204;2022-08-19T08:54:02;101337.09;;;20.04;100.00
50133;BME280;46340;53.148;8.204;2022-08-19T08:56:31;101341.13;;;20.18;100.00
50133;BME280;46340;53.148;8.204;2022-08-19T08:59:07;101339.13;;;20.18;100.00
50133;BME280;46340;53.148;8.204;2022-08-19T09:01:42;101335.53;;;20.18;100.00
50133;BME280;46340;53.148;8.204;2022-08-19T09:04:07;101343.91;;;20.10;100.00
50133;BME280;46340;53.148;8.204;2022-08-19T09:09:17;101333.53;;;20.29;100.00
50133;BME280;46340;53.148;8.204;2022-08-19T09:17:20;101335.53;;;20.32;100.00
50133;BME280;46340;53.148;8.204;2022-08-19T09:22:44;101322.75;;;20.38;100.00
50133;BME280;46340;53.148;8.204;2022-08-19T09:25:12;101321.94;;;20.74;100.00
50133;BME280;46340;53.148;8.204;2022-08-19T09:27:40;101313.50;;;20.92;100.00
50133;BME280;46340;53.148;8.204;2022-08-19T09:30:07;101314.63;;;21.27;100.00
50133;BME280;46340;53.148;8.204;2022-08-19T09:32:34;101325.75;;;21.55;100.00
50133;BME280;46340;53.148;8.204;2022-08-19T09:35:00;101321.22;;;21.79;100.00
50133;BME280;46340;53.148;8.204;2022-08-19T09:37:26;101323.50;;;21.99;100.00
50133;BME280;46340;53.148;8.204;2022-08-19T09:39:53;101318.22;;;22.12;100.00
50133;BME280;46340;53.148;8.204;2022-08-19T09:42:19;101313.50;;;21.98;100.00
50133;BME280;46340;53.148;8.204;2022-08-19T09:44:44;101317.28;;;21.70;100.00
50133;BME280;46340;53.148;8.204;2022-08-19T09:47:10;101318.47;;;21.69;100.00
50133;BME280;46340;53.148;8.204;2022-08-19T09:49:38;101318.13;;;21.63;100.00
50133;BME280;46340;53.148;8.204;2022-08-19T09:52:06;101312.47;;;21.67;100.00
50133;BME280;46340;53.148;8.204;2022-08-19T09:54:33;101316.41;;;21.76;100.00
50133;BME280;46340;53.148;8.204;2022-08-19T09:56:59;101311.53;;;21.91;100.00
50133;BME280;46340;53.148;8.204;2022-08-19T09:59:25;101308.28;;;21.96;100.00
50133;BME280;46340;53.148;8.204;2022-08-19T10:01:51;101307.09;;;21.97;100.00
50133;BME280;46340;53.148;8.204;2022-08-19T10:04:17;101313.81;;;22.11;100.00
50133;BME280;46340;53.148;8.204;2022-08-19T10:06:42;101310.09;;;22.28;100.00
50133;BME280;46340;53.148;8.204;2022-08-19T10:09:08;101310.91;;;22.25;100.00
50133;BME280;46340;53.148;8.204;2022-08-19T10:11:36;101304.50;;;22.21;100.00
50133;BME280;46340;53.148;8.204;2022-08-19T10:14:04;101308.09;;;22.25;100.00
50133;BME280;46340;53.148;8.204;2022-08-19T10:16:30;101311.25;;;22.34;100.00
50133;BME280;46340;53.148;8.204;2022-08-19T10:18:56;101304.97;;;22.09;100.00
50133;BME280;46340;53.148;8.204;2022-08-19T10:21:26;101308.69;;;21.95;100.00
50133;BME280;46340;53.148;8.204;2022-08-19T10:23:54;101301.41;;;22.05;100.00
50133;BME280;46340;53.148;8.204;2022-08-19T10:26:24;101293.22;;;22.28;100.00
50133;BME280;46340;53.148;8.204;2022-08-19T10:28:51;101295.13;;;22.39;100.00
50133;BME280;46340;53.148;8.204;2022-08-19T10:31:23;101300.94;;;22.13;100.00
50133;BME280;46340;53.148;8.204;2022-08-19T10:33:51;101301.59;;;22.81;100.00
50133;BME280;46340;53.148;8.204;2022-08-19T10:36:22;101296.66;;;24.43;100.00
50133;BME280;46340;53.148;8.204;2022-08-19T10:38:57;101299.16;;;25.84;100.00
50133;BME280;46340;53.148;8.204;2022-08-19T10:41:27;101295.78;;;26.10;100.00
50133;BME280;46340;53.148;8.204;2022-08-19T10:43:55;101287.25;;;26.59;100.00
50133;BME280;46340;53.148;8.204;2022-08-19T10:46:27;101279.91;;;27.36;94.84
50133;BME280;46340;53.148;8.204;2022-08-19T10:48:56;101279.25;;;28.35;83.70
50133;BME280;46340;53.148;8.204;2022-08-19T10:51:21;101268.28;;;29.38;84.72
50133;BME280;46340;53.148;8.204;2022-08-19T10:54:06;101275.84;;;30.63;78.40
50133;BME280;46340;53.148;8.204;2022-08-19T10:56:31;101267.72;;;31.26;71.38
50133;BME280;46340;53.148;8.204;2022-08-19T10:59:16;101266.00;;;31.20;65.06
50133;BME280;46340;53.148;8.204;2022-08-19T11:01:47;101268.94;;;29.74;66.94
50133;BME280;46340;53.148;8.204;2022-08-19T11:04:13;101269.69;;;28.42;82.97
50133;BME280;46340;53.148;8.204;2022-08-19T11:06:42;101277.34;;;28.06;80.55
50133;BME280;46340;53.148;8.204;2022-08-19T11:09:08;101276.31;;;28.26;86.68
50133;BME280;46340;53.148;8.204;2022-08-19T11:11:36;101270.25;;;28.84;77.85
50133;BME280;46340;53.148;8.204;2022-08-19T11:14:05;101277.28;;;29.15;79.32
50133;BME280;46340;53.148;8.204;2022-08-19T11:16:35;101275.19;;;30.41;75.28
50133;BME280;46340;53.148;8.204;2022-08-19T11:19:03;101264.75;;;31.02;71.06
50133;BME280;46340;53.148;8.204;2022-08-19T11:21:32;101276.97;;;31.12;60.23
50133;BME280;46340;53.148;8.204;2022-08-19T11:24:02;101274.81;;;29.79;66.50
50133;BME280;46340;53.148;8.204;2022-08-19T11:26:29;101270.41;;;29.47;65.43
50133;BME280;46340;53.148;8.204;2022-08-19T11:28:56;101268.53;;;28.87;74.39
50133;BME280;46340;53.148;8.204;2022-08-19T11:31:23;101270.94;;;28.41;79.00
50133;BME280;46340;53.148;8.204;2022-08-19T11:33:51;101256.13;;;30.19;69.41
50133;BME280;46340;53.148;8.204;2022-08-19T11:36:19;101263.44;;;29.79;65.48
50133;BME280;46340;53.148;8.204;2022-08-19T11:38:45;101262.41;;;28.88;76.95
50133;BME280;46340;53.148;8.204;2022-08-19T11:41:13;101261.53;;;28.79;75.68
50133;BME280;46340;53.148;8.204;2022-08-19T11:43:40;101259.75;;;28.24;83.35
50133;BME280;46340;53.148;8.204;2022-08-19T11:46:06;101270.56;;;28.64;82.63
50133;BME280;46340;53.148;8.204;2022-08-19T11:48:33;101259.19;;;29.53;79.35
50133;BME280;46340;53.148;8.204;2022-08-19T11:51:02;101256.97;;;29.79;75.61
50133;BME280;46340;53.148;8.204;2022-08-19T11:53:30;101260.34;;;29.11;74.80
50133;BME280;46340;53.148;8.204;2022-08-19T11:55:57;101271.38;;;28.52;84.12
50133;BME280;46340;53.148;8.204;2022-08-19T11:58:23;101274.09;;;27.95;84.61
50133;BME280;46340;53.148;8.204;2022-08-19T12:00:49;101273.44;;;28.39;87.31
50133;BME280;46340;53.148;8.204;2022-08-19T12:03:15;101266.97;;;28.38;88.84
50133;BME280;46340;53.148;8.204;2022-08-19T12:05:40;101267.91;;;29.58;82.32
50133;BME280;46340;53.148;8.204;2022-08-19T12:08:06;101269.34;;;29.32;77.97
50133;BME280;46340;53.148;8.204;2022-08-19T12:10:32;101273.06;;;29.73;69.38
50133;BME280;46340;53.148;8.204;2022-08-19T12:12:58;101267.28;;;30.72;65.74
50133;BME280;46340;53.148;8.204;2022-08-19T12:15:25;101269.13;;;30.29;61.91
50133;BME280;46340;53.148;8.204;2022-08-19T12:17:53;101269.31;;;30.35;57.92
50133;BME280;46340;53.148;8.204;2022-08-19T12:20:21;101252.56;;;30.55;62.92
50133;BME280;46340;53.148;8.204;2022-08-19T12:22:48;101257.94;;;30.63;57.98
50133;BME280;46340;53.148;8.204;2022-08-19T12:25:14;101260.97;;;31.66;58.68
50133;BME280;46340;53.148;8.204;2022-08-19T12:27:39;101253.78;;;32.62;48.36
50133;BME280;46340;53.148;8.204;2022-08-19T12:30:05;101246.59;;;32.67;46.41
50133;BME280;46340;53.148;8.204;2022-08-19T12:32:35;101242.28;;;30.77;52.37
50133;BME280;46340;53.148;8.204;2022-08-19T12:35:01;101247.03;;;30.98;52.41
50133;BME280;46340;53.148;8.204;2022-08-19T12:37:26;101244.06;;;29.56;57.46
50133;BME280;46340;53.148;8.204;2022-08-19T12:39:52;101248.31;;;30.51;56.13
50133;BME280;46340;53.148;8.204;2022-08-19T12:42:17;101246.31;;;31.40;54.08
50133;BME280;46340;53.148;8.204;2022-08-19T12:44:43;101236.59;;;33.96;46.99
50133;BME280;46340;53.148;8.204;2022-08-19T12:47:11;101242.72;;;33.68;44.15
50133;BME280;46340;53.148;8.204;2022-08-19T12:49:41;101233.31;;;33.53;41.48
50133;BME280;46340;53.148;8.204;2022-08-19T12:52:09;101234.56;;;34.58;41.39
50133;BME280;46340;53.148;8.204;2022-08-19T12:54:35;101230.72;;;33.85;40.19
50133;BME280;46340;53.148;8.204;2022-08-19T12:57:09;101225.22;;;34.02;44.89
50133;BME280;46340;53.148;8.204;2022-08-19T12:59:35;101228.59;;;34.82;39.33
50133;BME280;46340;53.148;8.204;2022-08-19T13:02:02;101233.78;;;34.78;41.45